Main page
METAR-TAF:

METAR-TAF

Airports :

Augsburg Airport

Augsburg, Germany

latitude: 48-26N, longitude: 010-56E, elevation: 461 m

Current weather observation

The report was made 29 minutes ago, at 09:20 UTC
Wind 10 kt from the East, varying between Northeast and East/Southeast
Temperature 4°C
Humidity 75%
Pressure 1026 hPa
Visibility 10 km or more
no clouds below 1500 m and no cumulonimbus

METAR: EDMA 170920Z 08010KT 050V110 CAVOK 04/M00 Q1026

Time: 10:49 (09:49 UTC)

Forecast

The report was made 1 hour and 49 minutes ago, at 08:00 UTC
Forecast valid from 17 at 09 UTC to 17 at 18 UTC
Wind 10 kt from the East
Visibility 10 km or more
no clouds below 1500 m and no cumulonimbus
Temporary
from 17 at 10 UTC to 17 at 18 UTC
Wind 15 kt from the East with gusts up to 25 kt

TAF: EDMA 170800Z 1709/1718 08010KT CAVOK TEMPO 1710/1718 08015G25KT

Weather observations and forecasts of more than 4000 airports (METAR and TAF reports).

The available stations are represented by yellow and red dots on the map.

Hover mouse over dot to see the name of the station.

Then click to see weather observations and forecasts.

To change the map : click on the green buttons with a black cross to zoom in, on the green button with a dash to zoom out, or on the green arrows for adjacent maps.


METAR-TAF: